Melrose, Iowa
Current Conditions -  °F | °C
As of 3:55 AM on Friday 31 Oct 2014 (Local Time) from KCNC Reporting Station
Broken Clouds Broken Clouds  
Wind Chill: 27°   Ceiling: 3600
Heat Index: 37°   Visibility: 10mi
Dew Point: 23°   Wind: 20mph
Humidity: 56%   Direction: 340°NNW
Pressure: 30.33"   Gusts: 35mph
Location:  40.98°N, 93.05°W
Report Text: KCNC 310855Z AUTO 34017G30KT 10SM BKN036 03/M05 A3033 RMK AO2
Loading
Personal Weather Stations






























Interactive Weather Map
Tropical Storm Tracking
New forecast layout! Learn more

10-Day Weather Forecast

Advertisements
Track Severe Weather on mobile